Time;durP1;ratioP1;P1;durP2;ratioP2;P2;SDS_P1;SDS_P2;PMS_P1;PMS_P2;Temp;Humidity;BMP_temperature;BMP_pressure;BME280_temperature;BME280_humidity;BME280_pressure;Samples;Min_cycle;Max_cycle;Signal;HPM_P1;HPM_P2
2021/01/23 00:01:48;;;;;;;7.40;3.60;;;22.40;47.80;;;;;;4954839;28;20047;-70
2021/01/23 00:04:14;;;;;;;7.15;3.85;;;22.30;47.80;;;;;;4962421;28;20058;-69
2021/01/23 00:06:39;;;;;;;6.60;3.50;;;22.30;47.80;;;;;;4951625;28;20069;-70
2021/01/23 00:09:05;;;;;;;7.32;3.72;;;22.30;47.80;;;;;;4960279;28;20049;-70
2021/01/23 00:11:31;;;;;;;8.38;3.85;;;22.30;47.80;;;;;;4955184;28;20039;-70
2021/01/23 00:13:56;;;;;;;6.47;3.40;;;22.30;47.80;;;;;;4963264;28;20548;-70
2021/01/23 00:16:22;;;;;;;6.43;3.60;;;22.30;47.80;;;;;;4952565;28;20027;-69
2021/01/23 00:18:47;;;;;;;7.28;3.53;;;22.30;47.80;;;;;;4953672;28;20062;-69
2021/01/23 00:21:13;;;;;;;7.50;4.03;;;22.30;47.80;;;;;;4963558;28;20363;-70
2021/01/23 00:23:38;;;;;;;6.97;3.38;;;22.30;47.80;;;;;;4967527;28;20082;-69
2021/01/23 00:26:04;;;;;;;6.72;3.42;;;22.30;47.80;;;;;;4967506;28;20031;-70
2021/01/23 00:28:30;;;;;;;5.82;3.40;;;22.30;47.80;;;;;;4965580;28;20440;-70
2021/01/23 00:30:55;;;;;;;5.53;3.25;;;22.20;47.80;;;;;;4957193;28;20043;-70
2021/01/23 00:33:21;;;;;;;5.72;3.00;;;22.20;47.80;;;;;;4956116;28;20157;-70
2021/01/23 00:35:47;;;;;;;7.18;3.30;;;22.20;47.80;;;;;;4966123;28;20038;-70
2021/01/23 00:38:13;;;;;;;7.07;3.65;;;22.20;47.80;;;;;;4960488;28;20031;-69
2021/01/23 00:40:38;;;;;;;7.75;3.40;;;22.20;47.80;;;;;;4956130;28;20584;-70
2021/01/23 00:43:04;;;;;;;6.65;3.58;;;22.20;47.70;;;;;;4969255;28;20038;-69
2021/01/23 00:45:30;;;;;;;7.35;3.63;;;22.20;47.80;;;;;;4966853;28;20463;-69
2021/01/23 00:47:55;;;;;;;6.28;3.30;;;22.20;47.70;;;;;;4966489;28;20042;-70
2021/01/23 00:50:21;;;;;;;6.90;3.35;;;22.20;47.70;;;;;;4958079;28;20079;-70
2021/01/23 00:52:46;;;;;;;6.95;3.72;;;22.10;47.60;;;;;;4966715;28;20035;-69
2021/01/23 00:55:13;;;;;;;5.55;3.13;;;22.10;47.60;;;;;;4965835;28;20135;-70
2021/01/23 00:57:38;;;;;;;7.55;3.25;;;22.20;47.70;;;;;;4965087;28;20454;-69
2021/01/23 01:00:07;;;;;;;5.65;3.40;;;22.10;47.60;;;;;;4967508;28;20152;-69
2021/01/23 01:02:32;;;;;;;5.47;3.17;;;22.10;47.60;;;;;;4965617;28;20697;-70
2021/01/23 01:04:58;;;;;;;5.85;3.25;;;22.10;47.60;;;;;;4964817;28;20087;-69
2021/01/23 01:07:23;;;;;;;5.55;3.08;;;22.10;47.60;;;;;;4978536;28;20035;-70
2021/01/23 01:09:49;;;;;;;6.15;3.03;;;22.10;47.50;;;;;;4968392;28;20353;-69
2021/01/23 01:12:15;;;;;;;5.05;3.03;;;22.10;47.50;;;;;;4983399;28;20066;-69
2021/01/23 01:14:40;;;;;;;6.30;3.50;;;22.10;47.50;;;;;;4966073;28;20137;-69
2021/01/23 01:17:06;;;;;;;6.22;2.97;;;22.10;47.50;;;;;;4964639;28;20137;-69
2021/01/23 01:19:31;;;;;;;6.32;3.15;;;22.10;47.50;;;;;;4968325;28;20147;-69
2021/01/23 01:21:57;;;;;;;4.70;2.70;;;22.00;47.40;;;;;;4964752;28;20363;-69
2021/01/23 01:24:22;;;;;;;4.70;2.70;;;22.00;47.40;;;;;;4964373;28;20032;-69
2021/01/23 01:26:48;;;;;;;5.53;2.97;;;22.00;47.40;;;;;;4960761;28;20034;-69
2021/01/23 01:29:13;;;;;;;5.22;2.97;;;22.00;47.50;;;;;;4958348;28;20118;-69
2021/01/23 01:31:39;;;;;;;6.13;2.97;;;22.00;47.40;;;;;;4955667;28;20038;-70
2021/01/23 01:34:05;;;;;;;6.30;2.70;;;22.00;47.40;;;;;;4968029;28;20070;-69
2021/01/23 01:36:30;;;;;;;6.07;3.20;;;22.00;47.40;;;;;;4965141;28;20551;-69
2021/01/23 01:38:57;;;;;;;5.53;2.90;;;22.00;47.40;;;;;;4963194;28;20015;-69
2021/01/23 01:41:22;;;;;;;5.18;2.63;;;22.00;47.40;;;;;;4948772;28;20027;-69
2021/01/23 01:43:48;;;;;;;5.68;2.80;;;22.00;47.90;;;;;;4964416;28;20031;-69
2021/01/23 01:46:14;;;;;;;5.28;2.90;;;21.90;47.30;;;;;;4963942;28;20061;-70
2021/01/23 01:48:41;;;;;;;5.05;2.80;;;22.00;47.40;;;;;;4961408;28;20039;-69
2021/01/23 01:51:06;;;;;;;4.90;2.80;;;21.90;47.30;;;;;;4951464;28;20438;-69
2021/01/23 01:53:32;;;;;;;5.40;2.90;;;21.90;47.30;;;;;;4957693;28;20034;-70
2021/01/23 01:55:58;;;;;;;4.68;2.38;;;21.90;47.30;;;;;;4964538;28;20062;-70
2021/01/23 01:58:24;;;;;;;5.22;2.80;;;21.90;47.30;;;;;;4965328;28;20046;-69
2021/01/23 02:00:50;;;;;;;4.88;2.70;;;21.90;47.30;;;;;;4957427;28;20066;-70
2021/01/23 02:03:34;;;;;;;4.30;2.30;;;21.90;47.30;;;;;;4966898;28;20462;-69
2021/01/23 02:06:17;;;;;;;4.93;2.70;;;21.90;47.30;;;;;;4962461;28;20448;-70
2021/01/23 02:09:05;;;;;;;4.78;2.72;;;21.80;47.30;;;;;;4964742;28;20042;-70
2021/01/23 02:12:08;;;;;;;4.85;2.47;;;21.80;47.20;;;;;;4955657;28;20043;-70
2021/01/23 02:14:57;;;;;;;5.22;2.50;;;21.80;47.20;;;;;;4958140;28;20323;-70
2021/01/23 02:17:42;;;;;;;3.88;2.35;;;21.80;47.20;;;;;;4950746;28;20046;-70
2021/01/23 02:21:04;;;;;;;4.20;2.40;;;21.80;47.20;;;;;;4965331;28;20027;-70
2021/01/23 02:23:32;;;;;;;4.32;2.33;;;21.80;47.10;;;;;;4975935;28;20141;-70
2021/01/23 02:26:07;;;;;;;3.92;2.25;;;21.80;47.20;;;;;;4982349;28;20077;-70
2021/01/23 02:28:45;;;;;;;5.07;2.38;;;21.80;47.20;;;;;;4970903;28;20394;-70
2021/01/23 02:31:16;;;;;;;4.47;2.55;;;21.70;47.10;;;;;;4961289;28;20067;-70
2021/01/23 02:33:44;;;;;;;3.67;2.20;;;21.70;47.10;;;;;;4962492;28;20026;-70
2021/01/23 02:36:12;;;;;;;4.95;2.45;;;21.70;47.10;;;;;;4956501;28;20046;-70
2021/01/23 02:38:39;;;;;;;4.68;2.30;;;21.70;47.10;;;;;;4964476;28;20031;-70
2021/01/23 02:41:05;;;;;;;4.15;2.15;;;21.70;47.10;;;;;;4965130;28;20130;-69
2021/01/23 02:43:33;;;;;;;4.53;2.22;;;21.70;47.10;;;;;;4965904;28;20027;-70
2021/01/23 02:45:59;;;;;;;4.22;2.10;;;21.70;47.10;;;;;;4963282;28;20101;-70
2021/01/23 02:48:25;;;;;;;3.38;2.03;;;21.70;47.10;;;;;;4966805;28;20039;-70
2021/01/23 02:50:51;;;;;;;4.13;2.30;;;21.70;47.10;;;;;;4961904;28;20089;-70
2021/01/23 02:53:20;;;;;;;4.10;2.15;;;21.60;47.10;;;;;;4964869;28;20066;-71
2021/01/23 02:55:51;;;;;;;3.58;1.92;;;21.70;47.10;;;;;;4967076;28;20074;-70
2021/01/23 02:58:20;;;;;;;3.22;1.77;;;21.60;47.00;;;;;;4956696;28;20023;-70
2021/01/23 03:00:51;;;;;;;4.38;2.25;;;21.60;47.00;;;;;;4959725;28;20035;-70
2021/01/23 03:03:18;;;;;;;4.30;1.90;;;21.60;47.10;;;;;;4971437;28;20027;-71
2021/01/23 03:05:45;;;;;;;3.22;1.95;;;21.60;47.00;;;;;;4961737;28;20030;-71
2021/01/23 03:08:17;;;;;;;3.38;1.80;;;21.60;47.00;;;;;;4967474;28;20096;-71
2021/01/23 03:10:45;;;;;;;3.42;1.83;;;21.60;47.60;;;;;;4970287;28;20152;-71
2021/01/23 03:13:14;;;;;;;4.28;1.90;;;21.60;47.10;;;;;;4969185;28;20054;-71
2021/01/23 03:15:41;;;;;;;;;;;21.60;47.00;;;;;;4965014;28;20114;-71
2021/01/23 03:18:07;;;;;;;4.25;1.83;;;21.60;47.00;;;;;;4969942;28;19914;-71
2021/01/23 03:20:33;;;;;;;3.40;1.75;;;21.60;47.00;;;;;;4967263;28;20031;-71
2021/01/23 03:23:00;;;;;;;3.88;1.80;;;21.60;47.00;;;;;;4970863;28;20781;-70
2021/01/23 03:25:26;;;;;;;2.97;1.73;;;21.50;47.00;;;;;;4968023;28;20034;-71
2021/01/23 03:27:52;;;;;;;3.50;1.73;;;21.50;47.00;;;;;;4968722;28;20064;-71
2021/01/23 03:30:18;;;;;;;3.70;1.92;;;21.50;47.00;;;;;;4966936;28;20023;-71
2021/01/23 03:32:46;;;;;;;2.75;1.52;;;21.50;47.00;;;;;;4960158;28;20474;-71
2021/01/23 03:35:12;;;;;;;4.03;1.80;;;21.50;47.00;;;;;;4961825;28;20125;-71
2021/01/23 03:37:38;;;;;;;2.80;1.70;;;21.50;47.00;;;;;;4954931;28;20031;-71
2021/01/23 03:40:05;;;;;;;3.38;1.65;;;21.50;47.00;;;;;;4964724;28;20362;-71
2021/01/23 03:42:31;;;;;;;3.55;1.83;;;21.50;47.00;;;;;;4955211;28;20035;-71
2021/01/23 03:44:56;;;;;;;2.70;1.60;;;21.50;47.00;;;;;;4958259;28;20037;-71
2021/01/23 03:47:22;;;;;;;3.13;1.75;;;21.50;47.00;;;;;;4968252;28;20122;-71
2021/01/23 03:49:48;;;;;;;2.85;1.60;;;21.50;47.00;;;;;;4969225;28;20078;-71
2021/01/23 03:52:14;;;;;;;3.42;1.60;;;21.50;47.00;;;;;;4958226;28;20082;-71
2021/01/23 03:54:40;;;;;;;2.83;1.50;;;21.50;47.00;;;;;;4963918;28;20469;-71
2021/01/23 03:57:07;;;;;;;2.83;1.45;;;21.40;47.00;;;;;;4964931;28;20031;-71
2021/01/23 03:59:33;;;;;;;2.63;1.40;;;21.40;47.00;;;;;;4970070;28;20030;-71
2021/01/23 04:01:59;;;;;;;3.65;1.50;;;21.40;47.00;;;;;;4965569;28;20030;-71
2021/01/23 04:04:25;;;;;;;2.72;1.40;;;21.40;47.00;;;;;;4959519;28;20043;-71
2021/01/23 04:06:50;;;;;;;3.08;1.50;;;21.40;47.00;;;;;;4958970;28;20026;-71
2021/01/23 04:09:16;;;;;;;2.83;1.45;;;21.40;47.00;;;;;;4959466;28;20070;-71
2021/01/23 04:11:41;;;;;;;2.63;1.50;;;21.40;47.00;;;;;;4965563;28;20122;-71
2021/01/23 04:14:07;;;;;;;2.60;1.40;;;21.40;47.00;;;;;;4970338;28;20456;-71
2021/01/23 04:16:33;;;;;;;2.65;1.65;;;21.40;47.00;;;;;;4965060;28;20034;-71
2021/01/23 04:18:58;;;;;;;3.00;1.60;;;21.40;47.00;;;;;;4968795;28;20084;-71
2021/01/23 04:21:24;;;;;;;3.38;1.70;;;21.40;47.00;;;;;;4962644;28;20097;-71
2021/01/23 04:23:50;;;;;;;2.10;1.50;;;21.40;47.60;;;;;;4950619;28;20209;-71
2021/01/23 04:26:16;;;;;;;2.50;1.40;;;21.40;47.00;;;;;;4964064;28;20037;-71
2021/01/23 04:28:41;;;;;;;2.25;1.25;;;21.40;47.10;;;;;;4967937;28;20125;-71
2021/01/23 04:31:07;;;;;;;2.60;1.30;;;21.40;47.10;;;;;;4958767;28;20151;-71
2021/01/23 04:33:34;;;;;;;2.33;1.40;;;21.40;47.10;;;;;;4961029;28;20031;-71
2021/01/23 04:36:05;;;;;;;2.40;1.35;;;21.30;47.10;;;;;;4959348;28;20034;-71
2021/01/23 04:38:31;;;;;;;2.25;1.20;;;21.40;47.10;;;;;;4965973;28;20027;-71
2021/01/23 04:40:58;;;;;;;2.75;1.40;;;21.30;47.10;;;;;;4967078;28;20031;-71
2021/01/23 04:43:24;;;;;;;2.60;1.30;;;21.30;47.10;;;;;;4969934;28;20023;-71
2021/01/23 04:45:51;;;;;;;2.60;1.30;;;21.30;47.10;;;;;;4963034;28;20029;-71
2021/01/23 04:48:17;;;;;;;2.28;1.27;;;21.30;47.10;;;;;;4962765;28;20656;-72
2021/01/23 04:50:44;;;;;;;2.75;1.40;;;21.30;47.10;;;;;;4950938;28;20114;-71
2021/01/23 04:53:10;;;;;;;2.60;1.23;;;21.30;47.20;;;;;;4966582;28;20081;-71
2021/01/23 04:55:36;;;;;;;2.42;1.27;;;21.30;47.20;;;;;;4959959;28;20081;-71
2021/01/23 04:58:02;;;;;;;2.05;1.20;;;21.30;47.20;;;;;;4960966;28;20035;-71
2021/01/23 05:00:27;;;;;;;2.28;1.17;;;21.30;47.20;;;;;;4951423;28;20426;-71
2021/01/23 05:03:01;;;;;;;2.03;1.20;;;21.30;47.20;;;;;;4947714;28;20023;-71
2021/01/23 05:05:28;;;;;;;2.25;1.20;;;21.30;47.20;;;;;;4954266;28;20068;-71
2021/01/23 05:07:53;;;;;;;2.72;1.50;;;21.30;47.20;;;;;;4961105;28;20034;-71
2021/01/23 05:10:23;;;;;;;1.73;1.05;;;21.30;47.20;;;;;;4959640;28;20048;-71
2021/01/23 05:12:51;;;;;;;2.25;1.30;;;21.30;47.20;;;;;;4969080;28;20038;-71
2021/01/23 05:15:28;;;;;;;2.60;1.23;;;21.30;47.20;;;;;;4965969;28;20027;-71
2021/01/23 05:18:01;;;;;;;2.15;1.05;;;21.30;47.20;;;;;;4960501;28;20034;-71
2021/01/23 05:20:29;;;;;;;2.35;1.30;;;21.30;47.30;;;;;;4965078;28;20434;-71
2021/01/23 05:22:55;;;;;;;1.80;1.07;;;21.30;47.30;;;;;;4963112;28;20031;-71
2021/01/23 05:25:24;;;;;;;2.88;1.60;;;21.30;47.30;;;;;;4964887;28;20330;-71
2021/01/23 05:27:50;;;;;;;1.90;1.10;;;21.30;47.30;;;;;;4956339;28;20059;-71
2021/01/23 05:30:16;;;;;;;2.25;1.13;;;21.30;47.30;;;;;;4965870;28;20478;-71
2021/01/23 05:32:41;;;;;;;1.88;1.00;;;21.20;47.30;;;;;;4966803;28;20073;-71
2021/01/23 05:35:16;;;;;;;2.30;1.17;;;21.20;47.30;;;;;;4963832;28;20069;-71
2021/01/23 05:37:42;;;;;;;1.88;1.05;;;21.20;47.30;;;;;;4947754;28;20082;-71
2021/01/23 05:40:08;;;;;;;2.38;1.15;;;21.20;47.30;;;;;;4964458;28;20026;-71
2021/01/23 05:42:42;;;;;;;1.70;0.93;;;21.20;47.30;;;;;;4968667;28;20027;-71
2021/01/23 05:45:13;;;;;;;2.10;1.10;;;21.20;47.30;;;;;;4965668;28;20033;-71
2021/01/23 05:47:40;;;;;;;2.08;1.17;;;21.20;47.30;;;;;;4967711;28;20057;-71
2021/01/23 05:50:09;;;;;;;2.10;1.15;;;21.20;47.40;;;;;;4967662;28;20041;-71
2021/01/23 05:52:36;;;;;;;2.40;1.20;;;21.20;47.30;;;;;;4981622;28;20101;-71
2021/01/23 05:55:02;;;;;;;1.70;1.05;;;21.20;47.40;;;;;;4967127;28;20462;-71
2021/01/23 05:57:28;;;;;;;2.17;1.30;;;21.20;47.40;;;;;;4967479;28;20023;-71
2021/01/23 05:59:54;;;;;;;2.85;1.30;;;21.20;47.90;;;;;;4961938;28;20037;-70
2021/01/23 06:02:21;;;;;;;2.35;1.20;;;21.20;47.40;;;;;;4963573;28;20039;-71
2021/01/23 06:04:52;;;;;;;2.00;1.02;;;21.20;47.40;;;;;;4966641;28;20098;-71
2021/01/23 06:07:46;;;;;;;2.08;1.00;;;21.20;47.40;;;;;;4970510;28;20383;-71
2021/01/23 06:10:21;;;;;;;1.35;0.80;;;21.20;47.40;;;;;;4955189;28;20480;-71
2021/01/23 06:12:51;;;;;;;1.77;1.00;;;21.20;47.40;;;;;;4968020;28;20053;-71
2021/01/23 06:15:32;;;;;;;2.45;1.00;;;21.10;47.40;;;;;;4964031;28;20089;-71
2021/01/23 06:17:59;;;;;;;1.90;1.00;;;21.10;47.40;;;;;;4952812;28;20337;-71
2021/01/23 06:20:40;;;;;;;1.90;1.00;;;21.20;47.50;;;;;;4965121;28;20104;-71
2021/01/23 06:23:20;;;;;;;2.58;1.00;;;21.10;47.40;;;;;;4948126;28;20486;-71
2021/01/23 06:25:49;;;;;;;2.33;1.27;;;21.10;47.40;;;;;;4955531;28;20062;-71
2021/01/23 06:28:15;;;;;;;2.15;1.10;;;21.10;47.50;;;;;;4967305;28;20687;-71
2021/01/23 06:30:41;;;;;;;2.30;1.10;;;21.10;47.50;;;;;;4949958;28;20141;-71
2021/01/23 06:33:22;;;;;;;1.38;0.90;;;21.10;47.50;;;;;;4963350;28;20097;-71
2021/01/23 06:36:10;;;;;;;2.10;1.10;;;21.10;47.50;;;;;;4962782;28;20423;-71
2021/01/23 06:38:37;;;;;;;1.70;0.93;;;21.10;47.50;;;;;;4966864;28;20019;-71
2021/01/23 06:41:24;;;;;;;1.50;0.90;;;21.10;47.50;;;;;;4955342;28;20122;-71
2021/01/23 06:44:11;;;;;;;1.60;0.93;;;21.10;47.50;;;;;;4963732;28;20038;-69
2021/01/23 06:46:39;;;;;;;2.40;1.20;;;21.10;47.50;;;;;;4964659;28;20118;-69
2021/01/23 06:49:10;;;;;;;3.42;1.17;;;21.10;47.50;;;;;;4962522;28;20061;-70
2021/01/23 06:51:38;;;;;;;1.50;0.95;;;21.10;47.50;;;;;;4945699;28;20034;-69
2021/01/23 06:54:13;;;;;;;1.95;1.00;;;21.10;47.50;;;;;;4978559;28;20556;-69
2021/01/23 06:56:49;;;;;;;1.77;1.00;;;21.10;47.60;;;;;;4947326;28;20035;-69
2021/01/23 06:59:32;;;;;;;1.40;0.82;;;21.00;47.50;;;;;;4967731;28;20031;-69
2021/01/23 07:02:05;;;;;;;1.83;1.00;;;21.00;47.50;;;;;;4956505;28;20473;-69
2021/01/23 07:04:33;;;;;;;1.90;1.00;;;21.10;47.60;;;;;;4962808;28;20035;-70
2021/01/23 07:07:05;;;;;;;2.00;1.02;;;21.10;47.60;;;;;;4948533;28;20059;-69
2021/01/23 07:09:50;;;;;;;1.73;0.95;;;21.00;47.50;;;;;;4957406;28;20343;-68
2021/01/23 07:12:39;;;;;;;1.63;0.90;;;21.00;47.50;;;;;;4966430;28;20366;-69
2021/01/23 07:15:35;;;;;;;1.23;0.90;;;21.00;47.50;;;;;;4949888;28;20031;-69
2021/01/23 07:18:13;;;;;;;1.90;1.00;;;21.00;47.50;;;;;;4971383;28;20343;-69
2021/01/23 07:20:39;;;;;;;1.87;1.20;;;21.00;47.50;;;;;;4946762;28;20046;-70
2021/01/23 07:23:05;;;;;;;2.17;1.13;;;21.00;47.60;;;;;;4951077;28;20282;-69
2021/01/23 07:25:31;;;;;;;1.70;1.00;;;21.00;47.50;;;;;;4957369;28;20070;-70
2021/01/23 07:27:57;;;;;;;2.33;1.08;;;21.00;47.50;;;;;;4966752;28;20040;-69
2021/01/23 07:30:23;;;;;;;1.20;0.77;;;21.00;47.50;;;;;;4978933;28;20039;-69
2021/01/23 07:32:49;;;;;;;1.42;0.90;;;21.00;47.40;;;;;;4947286;28;20031;-69
2021/01/23 07:35:16;;;;;;;2.03;1.10;;;21.00;47.40;;;;;;4950589;28;20023;-68
2021/01/23 07:37:49;;;;;;;1.58;0.93;;;21.00;47.40;;;;;;4962328;28;20312;-69
2021/01/23 07:40:22;;;;;;;1.50;0.90;;;21.00;47.30;;;;;;4961604;28;20086;-69
2021/01/23 07:42:49;;;;;;;1.75;0.93;;;21.00;47.20;;;;;;4967214;28;20027;-68
2021/01/23 07:45:16;;;;;;;1.92;1.10;;;21.00;47.20;;;;;;4968570;28;20042;-69
2021/01/23 07:47:42;;;;;;;1.40;0.90;;;21.00;47.10;;;;;;4967791;28;20038;-69
2021/01/23 07:50:13;;;;;;;2.22;1.02;;;21.00;47.10;;;;;;4969897;28;20627;-70
2021/01/23 07:52:39;;;;;;;1.35;0.77;;;21.00;47.10;;;;;;4953015;28;20090;-70
2021/01/23 07:55:07;;;;;;;1.67;0.90;;;21.00;47.10;;;;;;4955663;28;20138;-69
2021/01/23 07:57:33;;;;;;;1.67;0.90;;;21.00;47.00;;;;;;4965118;28;20085;-69
2021/01/23 07:59:59;;;;;;;1.90;1.00;;;21.00;47.00;;;;;;4955339;28;20039;-70
2021/01/23 08:02:26;;;;;;;1.45;0.77;;;21.00;47.00;;;;;;4962070;28;20082;-70
2021/01/23 08:04:56;;;;;;;1.23;0.90;;;21.00;47.10;;;;;;4966729;28;20622;-70
2021/01/23 08:07:26;;;;;;;2.03;0.82;;;20.90;47.00;;;;;;4969129;28;20019;-70
2021/01/23 08:10:07;;;;;;;1.20;0.70;;;20.90;47.00;;;;;;4971003;28;20041;-70
2021/01/23 08:12:34;;;;;;;1.20;0.70;;;20.90;46.90;;;;;;4969186;28;20031;-70
2021/01/23 08:15:00;;;;;;;1.02;0.73;;;20.90;47.00;;;;;;4952116;28;20054;-70
2021/01/23 08:17:42;;;;;;;1.40;0.80;;;20.90;47.00;;;;;;4969421;28;20027;-69
2021/01/23 08:20:32;;;;;;;2.35;0.90;;;20.90;46.90;;;;;;4965654;28;20086;-70
2021/01/23 08:23:06;;;;;;;1.63;0.90;;;20.90;47.00;;;;;;4957352;28;20034;-70
2021/01/23 08:25:55;;;;;;;1.60;0.68;;;20.90;47.00;;;;;;4970237;28;20132;-71
2021/01/23 08:28:33;;;;;;;1.40;0.80;;;20.90;47.00;;;;;;4951989;28;20035;-71
2021/01/23 08:31:21;;;;;;;1.30;0.80;;;20.90;47.10;;;;;;4967721;28;20043;-68
2021/01/23 08:33:52;;;;;;;0.73;0.63;;;20.90;47.10;;;;;;4969815;28;20066;-69
2021/01/23 08:36:19;;;;;;;1.33;0.80;;;20.90;47.10;;;;;;4962851;28;20544;-70
2021/01/23 08:38:45;;;;;;;1.10;0.80;;;20.90;47.20;;;;;;4960358;28;20197;-71
2021/01/23 08:41:10;;;;;;;1.02;0.65;;;20.90;47.20;;;;;;4962080;28;20034;-70
2021/01/23 08:43:36;;;;;;;1.02;0.70;;;20.90;47.20;;;;;;4960834;28;20031;-70
2021/01/23 08:46:02;;;;;;;1.25;0.70;;;20.90;47.30;;;;;;4964563;28;20034;-70
2021/01/23 08:48:27;;;;;;;0.82;0.70;;;20.90;47.30;;;;;;4969166;28;20037;-69
2021/01/23 08:50:53;;;;;;;1.25;0.73;;;20.80;47.50;;;;;;4963096;28;20455;-69
2021/01/23 08:53:19;;;;;;;1.05;0.70;;;20.90;47.30;;;;;;4962719;28;20027;-69
2021/01/23 08:55:44;;;;;;;1.17;0.70;;;20.80;47.30;;;;;;4965130;28;20113;-70
2021/01/23 08:58:10;;;;;;;1.30;0.85;;;20.80;47.30;;;;;;4968352;28;20034;-69
2021/01/23 09:00:36;;;;;;;1.17;0.70;;;20.80;47.30;;;;;;4964596;28;20690;-70
2021/01/23 09:03:02;;;;;;;2.15;0.80;;;20.80;47.30;;;;;;4963509;28;20042;-70
2021/01/23 09:05:28;;;;;;;1.20;0.80;;;20.80;47.30;;;;;;4955487;28;20650;-69
2021/01/23 09:07:54;;;;;;;1.10;0.80;;;20.80;47.30;;;;;;4966611;28;20026;-69
2021/01/23 09:10:20;;;;;;;1.33;0.82;;;20.80;47.30;;;;;;4967026;28;20119;-68
2021/01/23 09:12:47;;;;;;;0.98;0.75;;;20.80;47.30;;;;;;4960132;28;20086;-69
2021/01/23 09:15:13;;;;;;;1.13;0.80;;;20.80;47.40;;;;;;4960719;28;20086;-69
2021/01/23 09:17:39;;;;;;;1.13;0.80;;;20.80;47.40;;;;;;4967720;28;20035;-69
2021/01/23 09:20:09;;;;;;;1.30;0.80;;;20.80;47.40;;;;;;4962562;28;20130;-69
2021/01/23 09:22:35;;;;;;;1.48;0.70;;;20.80;47.40;;;;;;4965919;28;20523;-71
2021/01/23 09:25:00;;;;;;;1.63;0.80;;;20.80;47.40;;;;;;4965871;28;20034;-70
2021/01/23 09:27:27;;;;;;;1.13;0.80;;;20.80;47.50;;;;;;4963486;28;20155;-69
2021/01/23 09:29:53;;;;;;;1.63;0.75;;;20.80;47.50;;;;;;4966100;28;20031;-69
2021/01/23 09:32:20;;;;;;;1.17;0.75;;;20.80;47.50;;;;;;4963990;28;20406;-68
2021/01/23 09:34:46;;;;;;;1.25;0.80;;;20.80;47.50;;;;;;4964491;28;20027;-68
2021/01/23 09:37:11;;;;;;;1.23;0.80;;;20.80;47.50;;;;;;4952919;28;20479;-69
2021/01/23 09:39:38;;;;;;;2.00;0.73;;;20.80;47.50;;;;;;4965765;28;20727;-69
2021/01/23 09:42:03;;;;;;;1.65;0.90;;;20.80;47.50;;;;;;4950323;28;20027;-69
2021/01/23 09:44:29;;;;;;;1.73;0.90;;;20.80;47.50;;;;;;4957589;28;20108;-68
2021/01/23 09:46:55;;;;;;;1.10;0.70;;;20.70;47.40;;;;;;4953153;28;20034;-68
2021/01/23 09:49:21;;;;;;;1.77;0.90;;;20.80;47.50;;;;;;4960483;28;20083;-68
2021/01/23 09:51:47;;;;;;;1.33;0.90;;;20.70;47.50;;;;;;4960158;28;20046;-69
2021/01/23 09:54:12;;;;;;;1.20;0.90;;;20.70;47.50;;;;;;4957157;28;20042;-69
2021/01/23 09:56:38;;;;;;;1.60;0.90;;;20.70;47.50;;;;;;4959206;28;20042;-69
2021/01/23 09:59:04;;;;;;;1.65;0.98;;;20.70;47.60;;;;;;4966796;28;20093;-69
2021/01/23 10:01:29;;;;;;;1.25;0.85;;;20.70;47.50;;;;;;4965392;28;20034;-69
2021/01/23 10:03:56;;;;;;;1.45;0.82;;;20.70;47.50;;;;;;4966996;28;20102;-70
2021/01/23 10:06:23;;;;;;;1.13;0.80;;;20.70;47.60;;;;;;4957291;28;20031;-70
2021/01/23 10:08:49;;;;;;;1.48;0.90;;;20.70;47.60;;;;;;4966384;28;20382;-69
2021/01/23 10:11:14;;;;;;;1.38;0.80;;;20.70;47.60;;;;;;4961225;28;20027;-70
2021/01/23 10:13:40;;;;;;;2.15;0.90;;;20.70;47.60;;;;;;4960145;28;20118;-69
2021/01/23 10:16:05;;;;;;;2.17;0.90;;;20.70;47.70;;;;;;4957924;28;20035;-70
2021/01/23 10:18:35;;;;;;;1.73;0.93;;;20.70;47.70;;;;;;4956150;28;20771;-70
2021/01/23 10:21:02;;;;;;;1.73;1.10;;;20.70;47.70;;;;;;4961933;28;20505;-70
2021/01/23 10:23:28;;;;;;;2.83;1.15;;;20.70;47.80;;;;;;4950403;28;20088;-70
2021/01/23 10:25:54;;;;;;;2.53;1.10;;;20.70;47.80;;;;;;4960238;28;20069;-70
2021/01/23 10:28:19;;;;;;;1.70;1.00;;;20.70;48.30;;;;;;4957746;28;20407;-68
2021/01/23 10:30:45;;;;;;;2.75;1.20;;;20.70;47.80;;;;;;4957938;28;20050;-69
2021/01/23 10:33:10;;;;;;;2.58;1.00;;;20.70;47.80;;;;;;4949163;28;20035;-70
2021/01/23 10:35:36;;;;;;;1.55;0.90;;;20.70;47.80;;;;;;4955711;28;20058;-71
2021/01/23 10:38:02;;;;;;;1.45;1.00;;;20.70;47.80;;;;;;4969905;28;20470;-69
2021/01/23 10:40:27;;;;;;;2.50;1.13;;;20.70;47.80;;;;;;4964130;28;20081;-70
2021/01/23 10:42:53;;;;;;;2.00;1.10;;;20.70;47.90;;;;;;4964605;28;20165;-69
2021/01/23 10:45:18;;;;;;;1.67;1.02;;;20.70;47.90;;;;;;4962183;28;20031;-69
2021/01/23 10:47:44;;;;;;;1.95;1.10;;;20.70;47.90;;;;;;4961701;28;20521;-69
2021/01/23 10:50:10;;;;;;;1.83;1.08;;;20.70;47.90;;;;;;4964553;28;20035;-69
2021/01/23 10:52:36;;;;;;;2.35;1.30;;;20.70;47.90;;;;;;4963676;28;20126;-71
2021/01/23 10:55:02;;;;;;;2.05;1.00;;;20.70;47.90;;;;;;4962541;28;20023;-70
2021/01/23 10:57:27;;;;;;;2.72;1.40;;;20.70;48.00;;;;;;4952081;28;20389;-68
2021/01/23 10:59:53;;;;;;;2.13;1.02;;;20.70;48.00;;;;;;4965082;28;20101;-68
2021/01/23 11:02:18;;;;;;;2.35;1.30;;;20.70;48.00;;;;;;4955851;28;20035;-70
2021/01/23 11:04:44;;;;;;;2.42;1.30;;;20.70;48.10;;;;;;4947238;28;20035;-69
2021/01/23 11:07:10;;;;;;;2.30;1.20;;;20.70;48.00;;;;;;4943768;28;20142;-69
2021/01/23 11:09:36;;;;;;;3.10;1.50;;;20.70;48.10;;;;;;4963866;28;20412;-68
2021/01/23 11:12:01;;;;;;;2.30;1.20;;;20.70;48.10;;;;;;4964835;28;20158;-69
2021/01/23 11:14:27;;;;;;;1.98;1.30;;;20.70;48.10;;;;;;4950066;28;20118;-68
2021/01/23 11:16:52;;;;;;;3.05;1.30;;;20.70;48.10;;;;;;4960444;28;20086;-68
2021/01/23 11:19:20;;;;;;;3.72;1.38;;;20.70;48.10;;;;;;4965286;28;20027;-68
2021/01/23 11:21:45;;;;;;;3.50;1.60;;;20.70;48.10;;;;;;4958142;28;20562;-68
2021/01/23 11:24:11;;;;;;;2.22;1.30;;;20.70;48.10;;;;;;4968640;28;20098;-68
2021/01/23 11:26:37;;;;;;;2.42;1.38;;;20.70;48.10;;;;;;4963671;28;20043;-69
2021/01/23 11:29:03;;;;;;;2.20;1.30;;;20.70;48.10;;;;;;4967580;28;20109;-69
2021/01/23 11:31:28;;;;;;;2.65;1.40;;;20.70;48.10;;;;;;4958209;28;20469;-68
2021/01/23 11:33:54;;;;;;;3.10;1.50;;;20.70;48.10;;;;;;4949295;28;20031;-67
2021/01/23 11:36:20;;;;;;;2.38;1.40;;;20.70;48.10;;;;;;4952572;28;20034;-68
2021/01/23 11:38:46;;;;;;;2.35;1.33;;;20.70;48.10;;;;;;4949981;28;20026;-68
2021/01/23 11:41:11;;;;;;;2.58;1.40;;;20.70;48.10;;;;;;4953341;28;20419;-69
2021/01/23 11:43:37;;;;;;;2.63;1.67;;;20.70;48.10;;;;;;4968671;28;20058;-68
2021/01/23 11:46:03;;;;;;;2.22;1.30;;;20.70;48.10;;;;;;4957212;28;20062;-69
2021/01/23 11:48:30;;;;;;;2.33;1.35;;;20.70;48.10;;;;;;4969024;28;20104;-68
2021/01/23 11:50:56;;;;;;;2.78;1.50;;;20.70;48.20;;;;;;4964156;28;20407;-68
2021/01/23 11:53:21;;;;;;;2.63;1.45;;;20.70;48.20;;;;;;4957442;28;20035;-68
2021/01/23 11:55:49;;;;;;;2.47;1.50;;;20.70;48.30;;;;;;4963430;28;20031;-67
2021/01/23 11:58:15;;;;;;;2.50;1.40;;;20.70;48.30;;;;;;4962692;28;20054;-68
2021/01/23 12:00:40;;;;;;;2.05;1.30;;;20.70;48.30;;;;;;4962363;28;20780;-68
2021/01/23 12:03:06;;;;;;;2.92;1.50;;;20.70;48.30;;;;;;4965032;28;20039;-68
2021/01/23 12:05:33;;;;;;;3.50;1.50;;;20.70;48.30;;;;;;4963679;28;20481;-68
2021/01/23 12:07:59;;;;;;;2.42;1.45;;;20.70;48.40;;;;;;4961997;28;20130;-67
2021/01/23 12:10:26;;;;;;;3.70;1.60;;;20.70;48.50;;;;;;4963657;28;20049;-66
2021/01/23 12:12:51;;;;;;;3.40;1.52;;;20.70;48.50;;;;;;4966449;28;20122;-68
2021/01/23 12:15:18;;;;;;;2.35;1.33;;;20.70;48.50;;;;;;4967059;28;20134;-68
2021/01/23 12:17:44;;;;;;;2.22;1.33;;;20.70;48.50;;;;;;4965570;28;20062;-67
2021/01/23 12:20:10;;;;;;;2.75;1.30;;;20.70;48.50;;;;;;4968086;28;20023;-68
2021/01/23 12:22:37;;;;;;;2.47;1.55;;;20.70;48.50;;;;;;4966595;28;20054;-68
2021/01/23 12:25:08;;;;;;;2.72;1.38;;;20.70;48.50;;;;;;4963800;28;20698;-67
2021/01/23 12:27:37;;;;;;;2.50;1.50;;;20.70;48.50;;;;;;4961951;28;20042;-68
2021/01/23 12:30:11;;;;;;;4.85;1.55;;;20.70;48.50;;;;;;4962245;28;20031;-69
2021/01/23 12:32:37;;;;;;;2.83;1.40;;;20.70;48.50;;;;;;4967451;28;20097;-69
2021/01/23 12:35:05;;;;;;;2.95;1.45;;;20.70;48.40;;;;;;4964372;28;20510;-68
2021/01/23 12:37:31;;;;;;;2.92;1.42;;;20.70;48.50;;;;;;4959600;28;20027;-69
2021/01/23 12:40:00;;;;;;;3.80;1.50;;;20.70;48.40;;;;;;4965419;28;20019;-68
2021/01/23 12:42:26;;;;;;;2.85;1.40;;;20.70;48.40;;;;;;4963585;28;20082;-69
2021/01/23 12:44:52;;;;;;;2.88;1.35;;;20.70;48.40;;;;;;4965918;28;20042;-68
2021/01/23 12:47:18;;;;;;;2.88;1.50;;;20.70;48.40;;;;;;4957348;28;20038;-67
2021/01/23 12:49:44;;;;;;;3.50;1.60;;;20.70;48.40;;;;;;4963031;28;20493;-66
2021/01/23 12:52:09;;;;;;;2.13;1.35;;;20.70;48.40;;;;;;4956823;28;20063;-68
2021/01/23 12:54:35;;;;;;;2.30;1.33;;;20.70;48.40;;;;;;4980603;28;20407;-68